sensor_id;sensor_type;location;lat;lon;timestamp;P1;durP1;ratioP1;P2;durP2;ratioP2
70487;SDS011;57976;48.174;16.370;2022-08-19T00:00:27;11.90;;;4.00;;
70487;SDS011;57976;48.174;16.370;2022-08-19T00:02:32;9.40;;;3.80;;
70487;SDS011;57976;48.174;16.370;2022-08-19T00:04:37;11.00;;;4.00;;
70487;SDS011;57976;48.174;16.370;2022-08-19T00:06:43;10.90;;;4.20;;
70487;SDS011;57976;48.174;16.370;2022-08-19T00:08:49;9.60;;;3.90;;
70487;SDS011;57976;48.174;16.370;2022-08-19T00:10:54;10.60;;;3.90;;
70487;SDS011;57976;48.174;16.370;2022-08-19T00:12:58;11.70;;;3.90;;
70487;SDS011;57976;48.174;16.370;2022-08-19T00:15:04;10.40;;;3.80;;
70487;SDS011;57976;48.174;16.370;2022-08-19T00:17:14;12.60;;;4.30;;
70487;SDS011;57976;48.174;16.370;2022-08-19T00:19:18;10.10;;;3.70;;
70487;SDS011;57976;48.174;16.370;2022-08-19T00:21:24;12.30;;;3.40;;
70487;SDS011;57976;48.174;16.370;2022-08-19T00:23:29;12.00;;;3.70;;
70487;SDS011;57976;48.174;16.370;2022-08-19T00:25:34;8.90;;;3.50;;
70487;SDS011;57976;48.174;16.370;2022-08-19T00:27:39;10.40;;;3.70;;
70487;SDS011;57976;48.174;16.370;2022-08-19T00:29:44;13.70;;;3.80;;
70487;SDS011;57976;48.174;16.370;2022-08-19T00:31:54;10.70;;;3.70;;
70487;SDS011;57976;48.174;16.370;2022-08-19T00:33:59;10.90;;;3.70;;
70487;SDS011;57976;48.174;16.370;2022-08-19T00:36:05;10.80;;;3.80;;
70487;SDS011;57976;48.174;16.370;2022-08-19T00:38:12;9.20;;;3.50;;
70487;SDS011;57976;48.174;16.370;2022-08-19T00:40:17;11.30;;;3.70;;
70487;SDS011;57976;48.174;16.370;2022-08-19T00:42:22;9.80;;;3.30;;
70487;SDS011;57976;48.174;16.370;2022-08-19T00:44:28;11.60;;;3.30;;
70487;SDS011;57976;48.174;16.370;2022-08-19T00:46:34;9.90;;;3.40;;
70487;SDS011;57976;48.174;16.370;2022-08-19T00:48:40;11.40;;;3.10;;
70487;SDS011;57976;48.174;16.370;2022-08-19T00:50:45;9.20;;;3.50;;
70487;SDS011;57976;48.174;16.370;2022-08-19T00:52:54;9.20;;;3.50;;
70487;SDS011;57976;48.174;16.370;2022-08-19T00:54:59;9.40;;;3.50;;
70487;SDS011;57976;48.174;16.370;2022-08-19T00:57:06;10.50;;;3.30;;
70487;SDS011;57976;48.174;16.370;2022-08-19T00:59:14;9.70;;;3.40;;
70487;SDS011;57976;48.174;16.370;2022-08-19T01:01:40;9.60;;;3.60;;
70487;SDS011;57976;48.174;16.370;2022-08-19T01:03:47;9.00;;;3.50;;
70487;SDS011;57976;48.174;16.370;2022-08-19T01:06:00;11.10;;;3.50;;
70487;SDS011;57976;48.174;16.370;2022-08-19T01:08:05;12.10;;;3.50;;
70487;SDS011;57976;48.174;16.370;2022-08-19T01:10:13;12.50;;;3.30;;
70487;SDS011;57976;48.174;16.370;2022-08-19T01:12:20;9.20;;;3.40;;
70487;SDS011;57976;48.174;16.370;2022-08-19T01:14:25;11.10;;;3.30;;
70487;SDS011;57976;48.174;16.370;2022-08-19T01:16:30;9.40;;;3.30;;
70487;SDS011;57976;48.174;16.370;2022-08-19T01:18:38;9.90;;;3.40;;
70487;SDS011;57976;48.174;16.370;2022-08-19T01:20:45;11.20;;;3.30;;
70487;SDS011;57976;48.174;16.370;2022-08-19T01:22:51;9.20;;;3.40;;
70487;SDS011;57976;48.174;16.370;2022-08-19T01:24:57;9.70;;;3.20;;
70487;SDS011;57976;48.174;16.370;2022-08-19T01:27:04;9.70;;;3.30;;
70487;SDS011;57976;48.174;16.370;2022-08-19T01:29:12;10.90;;;3.40;;
70487;SDS011;57976;48.174;16.370;2022-08-19T01:31:18;9.10;;;3.30;;
70487;SDS011;57976;48.174;16.370;2022-08-19T01:33:29;11.30;;;3.40;;
70487;SDS011;57976;48.174;16.370;2022-08-19T01:35:34;9.50;;;3.10;;
70487;SDS011;57976;48.174;16.370;2022-08-19T01:37:47;8.80;;;3.00;;
70487;SDS011;57976;48.174;16.370;2022-08-19T01:39:54;9.70;;;3.60;;
70487;SDS011;57976;48.174;16.370;2022-08-19T01:41:59;10.20;;;3.30;;
70487;SDS011;57976;48.174;16.370;2022-08-19T01:44:04;7.70;;;3.00;;
70487;SDS011;57976;48.174;16.370;2022-08-19T01:46:21;8.70;;;3.40;;
70487;SDS011;57976;48.174;16.370;2022-08-19T01:48:27;10.30;;;3.20;;
70487;SDS011;57976;48.174;16.370;2022-08-19T01:50:35;11.90;;;3.20;;
70487;SDS011;57976;48.174;16.370;2022-08-19T01:52:41;9.50;;;3.30;;
70487;SDS011;57976;48.174;16.370;2022-08-19T01:54:46;10.10;;;3.20;;
70487;SDS011;57976;48.174;16.370;2022-08-19T01:56:51;8.40;;;3.40;;
70487;SDS011;57976;48.174;16.370;2022-08-19T01:59:01;8.70;;;2.90;;
70487;SDS011;57976;48.174;16.370;2022-08-19T02:01:08;9.30;;;3.00;;
70487;SDS011;57976;48.174;16.370;2022-08-19T02:03:13;7.70;;;3.00;;
70487;SDS011;57976;48.174;16.370;2022-08-19T02:05:18;9.20;;;3.10;;
70487;SDS011;57976;48.174;16.370;2022-08-19T02:07:23;7.80;;;3.00;;
70487;SDS011;57976;48.174;16.370;2022-08-19T02:09:29;9.60;;;2.70;;
70487;SDS011;57976;48.174;16.370;2022-08-19T02:11:36;10.00;;;3.30;;
70487;SDS011;57976;48.174;16.370;2022-08-19T02:13:41;9.00;;;2.70;;
70487;SDS011;57976;48.174;16.370;2022-08-19T02:15:46;9.50;;;3.10;;
70487;SDS011;57976;48.174;16.370;2022-08-19T02:17:50;10.60;;;3.20;;
70487;SDS011;57976;48.174;16.370;2022-08-19T02:19:55;8.30;;;2.40;;
70487;SDS011;57976;48.174;16.370;2022-08-19T02:22:00;9.70;;;2.50;;
70487;SDS011;57976;48.174;16.370;2022-08-19T02:24:05;9.30;;;2.60;;
70487;SDS011;57976;48.174;16.370;2022-08-19T02:26:10;11.10;;;2.50;;
70487;SDS011;57976;48.174;16.370;2022-08-19T02:28:15;9.10;;;2.60;;
70487;SDS011;57976;48.174;16.370;2022-08-19T02:30:21;8.80;;;2.90;;
70487;SDS011;57976;48.174;16.370;2022-08-19T02:32:26;8.70;;;2.40;;
70487;SDS011;57976;48.174;16.370;2022-08-19T02:34:31;10.70;;;3.00;;
70487;SDS011;57976;48.174;16.370;2022-08-19T02:36:35;8.80;;;2.50;;
70487;SDS011;57976;48.174;16.370;2022-08-19T02:38:44;8.70;;;2.80;;
70487;SDS011;57976;48.174;16.370;2022-08-19T02:40:57;8.30;;;2.70;;
70487;SDS011;57976;48.174;16.370;2022-08-19T02:43:05;10.00;;;3.10;;
70487;SDS011;57976;48.174;16.370;2022-08-19T02:45:11;10.30;;;3.00;;
70487;SDS011;57976;48.174;16.370;2022-08-19T02:47:16;9.90;;;2.90;;
70487;SDS011;57976;48.174;16.370;2022-08-19T02:49:21;9.00;;;3.20;;
70487;SDS011;57976;48.174;16.370;2022-08-19T02:51:29;8.70;;;3.00;;
70487;SDS011;57976;48.174;16.370;2022-08-19T02:53:35;8.90;;;3.40;;
70487;SDS011;57976;48.174;16.370;2022-08-19T02:55:44;12.20;;;3.50;;
70487;SDS011;57976;48.174;16.370;2022-08-19T02:57:49;8.60;;;3.50;;
70487;SDS011;57976;48.174;16.370;2022-08-19T02:59:54;9.40;;;3.50;;
70487;SDS011;57976;48.174;16.370;2022-08-19T03:02:02;9.60;;;3.40;;
70487;SDS011;57976;48.174;16.370;2022-08-19T03:04:07;7.60;;;3.40;;
70487;SDS011;57976;48.174;16.370;2022-08-19T03:06:14;14.90;;;4.50;;
70487;SDS011;57976;48.174;16.370;2022-08-19T03:08:19;7.90;;;3.50;;
70487;SDS011;57976;48.174;16.370;2022-08-19T03:10:24;8.80;;;3.70;;
70487;SDS011;57976;48.174;16.370;2022-08-19T03:12:34;11.20;;;4.20;;
70487;SDS011;57976;48.174;16.370;2022-08-19T03:14:40;10.80;;;4.00;;
70487;SDS011;57976;48.174;16.370;2022-08-19T03:16:46;9.80;;;4.00;;
70487;SDS011;57976;48.174;16.370;2022-08-19T03:18:52;8.40;;;3.90;;
70487;SDS011;57976;48.174;16.370;2022-08-19T03:20:59;10.20;;;4.00;;
70487;SDS011;57976;48.174;16.370;2022-08-19T03:23:03;8.80;;;4.10;;
70487;SDS011;57976;48.174;16.370;2022-08-19T03:25:09;10.00;;;4.20;;
70487;SDS011;57976;48.174;16.370;2022-08-19T03:27:14;8.60;;;4.10;;
70487;SDS011;57976;48.174;16.370;2022-08-19T03:29:19;8.90;;;3.40;;
70487;SDS011;57976;48.174;16.370;2022-08-19T03:31:33;16.10;;;8.50;;
70487;SDS011;57976;48.174;16.370;2022-08-19T03:33:52;10.10;;;4.20;;
70487;SDS011;57976;48.174;16.370;2022-08-19T03:36:01;10.60;;;5.20;;
70487;SDS011;57976;48.174;16.370;2022-08-19T03:38:11;13.50;;;5.10;;
70487;SDS011;57976;48.174;16.370;2022-08-19T03:40:16;12.20;;;5.50;;
70487;SDS011;57976;48.174;16.370;2022-08-19T03:42:22;8.70;;;3.50;;
70487;SDS011;57976;48.174;16.370;2022-08-19T03:44:47;11.00;;;4.40;;
70487;SDS011;57976;48.174;16.370;2022-08-19T03:46:52;10.10;;;3.60;;
70487;SDS011;57976;48.174;16.370;2022-08-19T03:48:59;11.10;;;3.50;;
70487;SDS011;57976;48.174;16.370;2022-08-19T03:51:07;14.60;;;6.90;;
70487;SDS011;57976;48.174;16.370;2022-08-19T03:53:33;14.20;;;5.50;;
70487;SDS011;57976;48.174;16.370;2022-08-19T03:55:40;10.10;;;3.50;;
70487;SDS011;57976;48.174;16.370;2022-08-19T03:57:45;10.50;;;3.60;;
70487;SDS011;57976;48.174;16.370;2022-08-19T03:59:50;13.20;;;4.10;;
70487;SDS011;57976;48.174;16.370;2022-08-19T04:01:56;9.00;;;3.60;;
70487;SDS011;57976;48.174;16.370;2022-08-19T04:04:05;9.30;;;3.60;;
70487;SDS011;57976;48.174;16.370;2022-08-19T04:06:12;9.20;;;3.60;;
70487;SDS011;57976;48.174;16.370;2022-08-19T04:08:19;8.70;;;3.50;;
70487;SDS011;57976;48.174;16.370;2022-08-19T04:10:24;9.30;;;3.40;;
70487;SDS011;57976;48.174;16.370;2022-08-19T04:12:29;10.40;;;4.00;;
70487;SDS011;57976;48.174;16.370;2022-08-19T04:14:34;10.90;;;4.10;;
70487;SDS011;57976;48.174;16.370;2022-08-19T04:16:39;10.20;;;4.60;;
70487;SDS011;57976;48.174;16.370;2022-08-19T04:18:44;11.80;;;4.60;;
70487;SDS011;57976;48.174;16.370;2022-08-19T04:20:49;13.10;;;6.60;;
70487;SDS011;57976;48.174;16.370;2022-08-19T04:22:54;11.90;;;3.60;;
70487;SDS011;57976;48.174;16.370;2022-08-19T04:25:00;9.70;;;3.90;;
70487;SDS011;57976;48.174;16.370;2022-08-19T04:27:06;11.20;;;3.70;;
70487;SDS011;57976;48.174;16.370;2022-08-19T04:29:12;8.30;;;3.90;;
70487;SDS011;57976;48.174;16.370;2022-08-19T04:31:19;9.40;;;3.60;;
70487;SDS011;57976;48.174;16.370;2022-08-19T04:33:25;9.10;;;3.50;;
70487;SDS011;57976;48.174;16.370;2022-08-19T04:35:35;9.40;;;3.50;;
70487;SDS011;57976;48.174;16.370;2022-08-19T04:37:42;9.60;;;3.30;;
70487;SDS011;57976;48.174;16.370;2022-08-19T04:39:46;12.10;;;4.50;;
70487;SDS011;57976;48.174;16.370;2022-08-19T04:41:51;8.80;;;3.40;;
70487;SDS011;57976;48.174;16.370;2022-08-19T04:43:56;9.70;;;3.40;;
70487;SDS011;57976;48.174;16.370;2022-08-19T04:46:06;12.10;;;3.80;;
70487;SDS011;57976;48.174;16.370;2022-08-19T04:48:30;9.60;;;3.60;;
70487;SDS011;57976;48.174;16.370;2022-08-19T04:50:39;10.00;;;3.60;;
70487;SDS011;57976;48.174;16.370;2022-08-19T04:52:45;12.40;;;3.90;;
70487;SDS011;57976;48.174;16.370;2022-08-19T04:54:52;10.30;;;3.70;;
70487;SDS011;57976;48.174;16.370;2022-08-19T04:56:57;10.00;;;3.80;;
70487;SDS011;57976;48.174;16.370;2022-08-19T04:59:02;11.20;;;4.20;;
70487;SDS011;57976;48.174;16.370;2022-08-19T05:01:07;10.30;;;4.10;;
70487;SDS011;57976;48.174;16.370;2022-08-19T05:03:14;13.00;;;3.90;;
70487;SDS011;57976;48.174;16.370;2022-08-19T05:05:18;11.80;;;4.10;;
70487;SDS011;57976;48.174;16.370;2022-08-19T05:07:23;9.50;;;3.60;;
70487;SDS011;57976;48.174;16.370;2022-08-19T05:09:28;11.70;;;3.90;;
70487;SDS011;57976;48.174;16.370;2022-08-19T05:11:53;13.30;;;4.10;;
70487;SDS011;57976;48.174;16.370;2022-08-19T05:13:59;10.70;;;4.30;;
70487;SDS011;57976;48.174;16.370;2022-08-19T05:16:04;9.20;;;4.00;;
70487;SDS011;57976;48.174;16.370;2022-08-19T05:18:09;9.60;;;4.30;;
70487;SDS011;57976;48.174;16.370;2022-08-19T05:20:14;10.70;;;4.80;;
70487;SDS011;57976;48.174;16.370;2022-08-19T05:22:19;10.50;;;4.40;;
70487;SDS011;57976;48.174;16.370;2022-08-19T05:24:24;10.00;;;4.40;;
70487;SDS011;57976;48.174;16.370;2022-08-19T05:26:29;10.00;;;5.40;;
70487;SDS011;57976;48.174;16.370;2022-08-19T05:28:34;11.90;;;5.60;;
70487;SDS011;57976;48.174;16.370;2022-08-19T05:30:39;11.10;;;6.10;;
70487;SDS011;57976;48.174;16.370;2022-08-19T05:32:49;10.70;;;6.90;;
70487;SDS011;57976;48.174;16.370;2022-08-19T05:34:56;11.70;;;6.40;;
70487;SDS011;57976;48.174;16.370;2022-08-19T05:37:01;11.70;;;6.70;;
70487;SDS011;57976;48.174;16.370;2022-08-19T05:39:11;10.50;;;6.70;;
70487;SDS011;57976;48.174;16.370;2022-08-19T05:41:18;11.10;;;7.00;;
70487;SDS011;57976;48.174;16.370;2022-08-19T05:43:24;10.00;;;6.40;;
70487;SDS011;57976;48.174;16.370;2022-08-19T05:45:28;12.80;;;6.50;;
70487;SDS011;57976;48.174;16.370;2022-08-19T05:47:33;11.30;;;6.90;;
70487;SDS011;57976;48.174;16.370;2022-08-19T05:49:44;13.00;;;6.90;;
70487;SDS011;57976;48.174;16.370;2022-08-19T05:51:49;10.60;;;7.10;;
70487;SDS011;57976;48.174;16.370;2022-08-19T05:53:54;11.00;;;6.60;;
70487;SDS011;57976;48.174;16.370;2022-08-19T05:55:58;14.60;;;7.60;;
70487;SDS011;57976;48.174;16.370;2022-08-19T05:58:08;11.40;;;7.20;;
70487;SDS011;57976;48.174;16.370;2022-08-19T06:00:13;11.60;;;7.60;;
70487;SDS011;57976;48.174;16.370;2022-08-19T06:02:24;10.60;;;6.80;;
70487;SDS011;57976;48.174;16.370;2022-08-19T06:04:29;12.00;;;7.20;;
70487;SDS011;57976;48.174;16.370;2022-08-19T06:06:34;14.10;;;7.40;;
70487;SDS011;57976;48.174;16.370;2022-08-19T06:08:39;14.60;;;7.30;;
70487;SDS011;57976;48.174;16.370;2022-08-19T06:10:44;11.60;;;7.20;;
70487;SDS011;57976;48.174;16.370;2022-08-19T06:12:49;12.00;;;7.40;;
70487;SDS011;57976;48.174;16.370;2022-08-19T06:14:54;11.60;;;7.40;;
70487;SDS011;57976;48.174;16.370;2022-08-19T06:17:03;11.30;;;7.10;;
70487;SDS011;57976;48.174;16.370;2022-08-19T06:19:11;14.80;;;7.20;;
70487;SDS011;57976;48.174;16.370;2022-08-19T06:21:18;12.70;;;7.40;;
70487;SDS011;57976;48.174;16.370;2022-08-19T06:23:23;11.10;;;7.10;;
70487;SDS011;57976;48.174;16.370;2022-08-19T06:25:29;12.90;;;7.10;;
70487;SDS011;57976;48.174;16.370;2022-08-19T06:27:34;12.00;;;7.20;;
70487;SDS011;57976;48.174;16.370;2022-08-19T06:29:50;10.00;;;6.90;;
70487;SDS011;57976;48.174;16.370;2022-08-19T06:31:55;12.30;;;7.20;;
70487;SDS011;57976;48.174;16.370;2022-08-19T06:34:01;10.40;;;6.20;;
70487;SDS011;57976;48.174;16.370;2022-08-19T06:36:08;12.80;;;6.80;;
70487;SDS011;57976;48.174;16.370;2022-08-19T06:38:20;10.60;;;6.30;;
70487;SDS011;57976;48.174;16.370;2022-08-19T06:40:24;10.60;;;6.50;;
70487;SDS011;57976;48.174;16.370;2022-08-19T06:42:29;9.70;;;6.30;;
70487;SDS011;57976;48.174;16.370;2022-08-19T06:44:37;12.00;;;6.50;;
70487;SDS011;57976;48.174;16.370;2022-08-19T06:46:45;11.00;;;6.30;;
70487;SDS011;57976;48.174;16.370;2022-08-19T06:48:56;9.50;;;5.80;;
70487;SDS011;57976;48.174;16.370;2022-08-19T06:51:03;10.20;;;6.30;;
70487;SDS011;57976;48.174;16.370;2022-08-19T06:53:10;9.60;;;6.00;;
70487;SDS011;57976;48.174;16.370;2022-08-19T06:55:16;10.30;;;6.00;;
70487;SDS011;57976;48.174;16.370;2022-08-19T06:57:21;10.40;;;6.20;;
70487;SDS011;57976;48.174;16.370;2022-08-19T06:59:26;10.30;;;5.70;;
70487;SDS011;57976;48.174;16.370;2022-08-19T07:01:33;9.50;;;6.20;;
70487;SDS011;57976;48.174;16.370;2022-08-19T07:03:39;11.10;;;5.90;;
70487;SDS011;57976;48.174;16.370;2022-08-19T07:05:44;9.80;;;6.10;;
70487;SDS011;57976;48.174;16.370;2022-08-19T07:07:49;11.30;;;6.30;;
70487;SDS011;57976;48.174;16.370;2022-08-19T07:09:53;13.20;;;6.70;;
70487;SDS011;57976;48.174;16.370;2022-08-19T07:12:04;10.90;;;6.70;;
70487;SDS011;57976;48.174;16.370;2022-08-19T07:14:12;10.40;;;6.30;;
70487;SDS011;57976;48.174;16.370;2022-08-19T07:16:21;10.60;;;6.60;;
70487;SDS011;57976;48.174;16.370;2022-08-19T07:18:32;11.10;;;6.60;;
70487;SDS011;57976;48.174;16.370;2022-08-19T07:20:40;11.00;;;6.60;;
70487;SDS011;57976;48.174;16.370;2022-08-19T07:22:45;11.00;;;6.10;;
70487;SDS011;57976;48.174;16.370;2022-08-19T07:24:50;10.70;;;6.50;;
70487;SDS011;57976;48.174;16.370;2022-08-19T07:26:55;12.60;;;6.20;;
70487;SDS011;57976;48.174;16.370;2022-08-19T07:29:01;12.10;;;6.30;;
70487;SDS011;57976;48.174;16.370;2022-08-19T07:31:06;11.40;;;6.30;;
70487;SDS011;57976;48.174;16.370;2022-08-19T07:33:13;10.70;;;6.40;;
70487;SDS011;57976;48.174;16.370;2022-08-19T07:35:19;9.20;;;6.00;;
70487;SDS011;57976;48.174;16.370;2022-08-19T07:37:23;10.80;;;6.40;;
70487;SDS011;57976;48.174;16.370;2022-08-19T07:39:35;12.30;;;6.60;;
70487;SDS011;57976;48.174;16.370;2022-08-19T07:41:40;9.80;;;6.10;;
70487;SDS011;57976;48.174;16.370;2022-08-19T07:43:46;11.50;;;6.40;;
70487;SDS011;57976;48.174;16.370;2022-08-19T07:45:52;9.90;;;6.30;;
70487;SDS011;57976;48.174;16.370;2022-08-19T07:47:58;10.70;;;6.40;;
70487;SDS011;57976;48.174;16.370;2022-08-19T07:50:04;10.70;;;6.40;;
70487;SDS011;57976;48.174;16.370;2022-08-19T07:52:13;10.60;;;6.50;;
70487;SDS011;57976;48.174;16.370;2022-08-19T07:54:18;9.40;;;6.20;;
70487;SDS011;57976;48.174;16.370;2022-08-19T07:56:23;10.20;;;6.30;;
70487;SDS011;57976;48.174;16.370;2022-08-19T07:58:28;9.50;;;6.00;;
70487;SDS011;57976;48.174;16.370;2022-08-19T08:00:34;10.80;;;6.10;;
70487;SDS011;57976;48.174;16.370;2022-08-19T08:02:40;10.90;;;6.00;;
70487;SDS011;57976;48.174;16.370;2022-08-19T08:04:45;9.50;;;5.90;;
70487;SDS011;57976;48.174;16.370;2022-08-19T08:06:53;11.30;;;6.20;;
70487;SDS011;57976;48.174;16.370;2022-08-19T08:08:59;11.20;;;5.80;;
70487;SDS011;57976;48.174;16.370;2022-08-19T08:11:09;8.50;;;5.00;;
70487;SDS011;57976;48.174;16.370;2022-08-19T08:13:17;8.60;;;5.40;;
70487;SDS011;57976;48.174;16.370;2022-08-19T08:15:23;10.40;;;5.80;;
70487;SDS011;57976;48.174;16.370;2022-08-19T08:17:28;10.80;;;5.70;;
70487;SDS011;57976;48.174;16.370;2022-08-19T08:19:53;10.70;;;5.30;;
70487;SDS011;57976;48.174;16.370;2022-08-19T08:21:59;9.10;;;5.10;;
70487;SDS011;57976;48.174;16.370;2022-08-19T08:24:04;12.00;;;5.60;;
70487;SDS011;57976;48.174;16.370;2022-08-19T08:26:10;8.40;;;4.90;;
70487;SDS011;57976;48.174;16.370;2022-08-19T08:28:18;10.50;;;5.40;;
70487;SDS011;57976;48.174;16.370;2022-08-19T08:30:24;9.70;;;4.70;;
70487;SDS011;57976;48.174;16.370;2022-08-19T08:32:34;9.60;;;5.20;;
70487;SDS011;57976;48.174;16.370;2022-08-19T08:34:40;11.50;;;5.30;;
70487;SDS011;57976;48.174;16.370;2022-08-19T08:36:45;8.80;;;5.50;;
70487;SDS011;57976;48.174;16.370;2022-08-19T08:38:50;10.60;;;5.30;;
70487;SDS011;57976;48.174;16.370;2022-08-19T08:41:01;10.80;;;5.40;;
70487;SDS011;57976;48.174;16.370;2022-08-19T08:43:20;9.90;;;5.20;;
70487;SDS011;57976;48.174;16.370;2022-08-19T08:45:33;9.30;;;5.30;;
70487;SDS011;57976;48.174;16.370;2022-08-19T08:47:46;10.60;;;5.10;;
70487;SDS011;57976;48.174;16.370;2022-08-19T08:49:55;11.40;;;5.60;;
70487;SDS011;57976;48.174;16.370;2022-08-19T08:52:07;9.30;;;5.50;;
70487;SDS011;57976;48.174;16.370;2022-08-19T08:54:17;9.10;;;5.70;;
70487;SDS011;57976;48.174;16.370;2022-08-19T08:56:25;10.00;;;5.50;;
70487;SDS011;57976;48.174;16.370;2022-08-19T08:58:31;11.30;;;5.80;;
70487;SDS011;57976;48.174;16.370;2022-08-19T09:00:46;9.20;;;5.40;;
70487;SDS011;57976;48.174;16.370;2022-08-19T09:02:52;9.80;;;5.30;;
70487;SDS011;57976;48.174;16.370;2022-08-19T09:04:58;10.30;;;5.50;;
70487;SDS011;57976;48.174;16.370;2022-08-19T09:07:10;9.70;;;5.50;;
70487;SDS011;57976;48.174;16.370;2022-08-19T09:09:38;10.30;;;5.30;;
70487;SDS011;57976;48.174;16.370;2022-08-19T09:11:54;9.70;;;5.50;;
70487;SDS011;57976;48.174;16.370;2022-08-19T09:14:08;8.90;;;5.20;;
70487;SDS011;57976;48.174;16.370;2022-08-19T09:16:39;10.00;;;5.30;;
70487;SDS011;57976;48.174;16.370;2022-08-19T09:18:46;10.40;;;5.40;;
70487;SDS011;57976;48.174;16.370;2022-08-19T09:20:55;9.90;;;5.50;;
70487;SDS011;57976;48.174;16.370;2022-08-19T09:23:00;9.60;;;5.40;;
70487;SDS011;57976;48.174;16.370;2022-08-19T09:25:08;10.70;;;5.10;;
70487;SDS011;57976;48.174;16.370;2022-08-19T09:27:17;10.80;;;5.40;;
70487;SDS011;57976;48.174;16.370;2022-08-19T09:29:22;9.50;;;5.10;;
70487;SDS011;57976;48.174;16.370;2022-08-19T09:31:28;9.40;;;5.20;;
70487;SDS011;57976;48.174;16.370;2022-08-19T09:33:34;10.00;;;5.40;;
70487;SDS011;57976;48.174;16.370;2022-08-19T09:35:39;11.10;;;5.20;;
70487;SDS011;57976;48.174;16.370;2022-08-19T09:37:55;10.70;;;5.20;;
70487;SDS011;57976;48.174;16.370;2022-08-19T09:40:02;10.20;;;5.00;;
70487;SDS011;57976;48.174;16.370;2022-08-19T09:42:08;9.60;;;5.10;;
70487;SDS011;57976;48.174;16.370;2022-08-19T09:44:22;10.80;;;5.10;;
70487;SDS011;57976;48.174;16.370;2022-08-19T09:46:29;8.80;;;4.40;;
70487;SDS011;57976;48.174;16.370;2022-08-19T09:48:34;9.60;;;5.00;;
70487;SDS011;57976;48.174;16.370;2022-08-19T09:50:40;8.80;;;4.80;;
70487;SDS011;57976;48.174;16.370;2022-08-19T09:52:54;9.60;;;4.60;;
70487;SDS011;57976;48.174;16.370;2022-08-19T09:55:00;10.00;;;4.70;;
70487;SDS011;57976;48.174;16.370;2022-08-19T09:57:10;9.50;;;5.00;;
70487;SDS011;57976;48.174;16.370;2022-08-19T09:59:14;11.00;;;4.50;;
70487;SDS011;57976;48.174;16.370;2022-08-19T10:01:20;8.40;;;4.60;;
70487;SDS011;57976;48.174;16.370;2022-08-19T10:03:27;11.30;;;5.10;;
70487;SDS011;57976;48.174;16.370;2022-08-19T10:05:34;10.10;;;5.30;;
70487;SDS011;57976;48.174;16.370;2022-08-19T10:07:39;10.40;;;5.10;;
70487;SDS011;57976;48.174;16.370;2022-08-19T10:09:44;10.70;;;5.40;;
70487;SDS011;57976;48.174;16.370;2022-08-19T10:11:49;11.30;;;5.50;;
70487;SDS011;57976;48.174;16.370;2022-08-19T10:13:57;10.20;;;5.30;;
70487;SDS011;57976;48.174;16.370;2022-08-19T10:16:04;10.80;;;5.70;;
70487;SDS011;57976;48.174;16.370;2022-08-19T10:18:12;11.00;;;5.20;;
70487;SDS011;57976;48.174;16.370;2022-08-19T10:20:17;13.00;;;5.70;;
70487;SDS011;57976;48.174;16.370;2022-08-19T10:22:22;11.80;;;5.50;;
70487;SDS011;57976;48.174;16.370;2022-08-19T10:24:28;11.50;;;5.40;;
70487;SDS011;57976;48.174;16.370;2022-08-19T10:26:33;9.60;;;5.30;;
70487;SDS011;57976;48.174;16.370;2022-08-19T10:28:40;10.40;;;5.60;;
70487;SDS011;57976;48.174;16.370;2022-08-19T10:30:49;10.40;;;5.50;;
70487;SDS011;57976;48.174;16.370;2022-08-19T10:32:54;12.00;;;5.70;;
70487;SDS011;57976;48.174;16.370;2022-08-19T10:34:59;11.10;;;6.40;;
70487;SDS011;57976;48.174;16.370;2022-08-19T10:37:07;11.30;;;5.60;;
70487;SDS011;57976;48.174;16.370;2022-08-19T10:39:16;11.80;;;5.60;;
70487;SDS011;57976;48.174;16.370;2022-08-19T10:41:26;11.60;;;5.70;;
70487;SDS011;57976;48.174;16.370;2022-08-19T10:43:39;11.70;;;5.70;;
70487;SDS011;57976;48.174;16.370;2022-08-19T10:45:48;12.40;;;5.80;;
70487;SDS011;57976;48.174;16.370;2022-08-19T10:47:57;11.00;;;5.50;;
70487;SDS011;57976;48.174;16.370;2022-08-19T10:50:02;12.80;;;5.70;;
70487;SDS011;57976;48.174;16.370;2022-08-19T10:52:08;10.50;;;5.10;;
70487;SDS011;57976;48.174;16.370;2022-08-19T10:54:21;9.50;;;4.70;;
70487;SDS011;57976;48.174;16.370;2022-08-19T10:56:35;10.20;;;5.20;;
70487;SDS011;57976;48.174;16.370;2022-08-19T10:58:40;11.60;;;4.80;;
70487;SDS011;57976;48.174;16.370;2022-08-19T11:00:50;11.30;;;4.90;;
70487;SDS011;57976;48.174;16.370;2022-08-19T11:02:56;11.40;;;4.50;;
70487;SDS011;57976;48.174;16.370;2022-08-19T11:05:01;10.50;;;4.60;;
70487;SDS011;57976;48.174;16.370;2022-08-19T11:07:17;13.90;;;4.70;;
70487;SDS011;57976;48.174;16.370;2022-08-19T11:09:23;11.20;;;4.70;;
70487;SDS011;57976;48.174;16.370;2022-08-19T11:11:36;11.50;;;5.00;;
70487;SDS011;57976;48.174;16.370;2022-08-19T11:13:41;11.80;;;4.80;;
70487;SDS011;57976;48.174;16.370;2022-08-19T11:15:47;10.80;;;4.60;;
70487;SDS011;57976;48.174;16.370;2022-08-19T11:17:58;13.10;;;5.00;;
70487;SDS011;57976;48.174;16.370;2022-08-19T11:20:03;11.30;;;5.10;;
70487;SDS011;57976;48.174;16.370;2022-08-19T11:22:09;10.60;;;5.00;;
70487;SDS011;57976;48.174;16.370;2022-08-19T11:24:22;13.90;;;5.20;;
70487;SDS011;57976;48.174;16.370;2022-08-19T11:26:28;10.10;;;5.00;;
70487;SDS011;57976;48.174;16.370;2022-08-19T11:28:33;14.10;;;4.90;;
70487;SDS011;57976;48.174;16.370;2022-08-19T11:30:39;12.30;;;4.10;;
70487;SDS011;57976;48.174;16.370;2022-08-19T11:32:44;12.50;;;4.30;;
70487;SDS011;57976;48.174;16.370;2022-08-19T11:34:51;12.00;;;4.10;;
70487;SDS011;57976;48.174;16.370;2022-08-19T11:36:56;13.40;;;4.30;;
70487;SDS011;57976;48.174;16.370;2022-08-19T11:39:02;11.60;;;3.80;;
70487;SDS011;57976;48.174;16.370;2022-08-19T11:41:08;14.30;;;3.50;;
70487;SDS011;57976;48.174;16.370;2022-08-19T11:43:13;12.40;;;3.10;;
70487;SDS011;57976;48.174;16.370;2022-08-19T11:45:18;15.60;;;3.60;;
70487;SDS011;57976;48.174;16.370;2022-08-19T11:47:23;15.30;;;3.10;;
70487;SDS011;57976;48.174;16.370;2022-08-19T11:49:28;14.90;;;3.10;;
70487;SDS011;57976;48.174;16.370;2022-08-19T11:51:33;13.40;;;3.00;;
70487;SDS011;57976;48.174;16.370;2022-08-19T11:53:39;13.70;;;3.00;;
70487;SDS011;57976;48.174;16.370;2022-08-19T11:55:44;13.70;;;3.30;;
70487;SDS011;57976;48.174;16.370;2022-08-19T11:57:49;14.00;;;3.10;;
70487;SDS011;57976;48.174;16.370;2022-08-19T11:59:55;15.60;;;3.50;;
70487;SDS011;57976;48.174;16.370;2022-08-19T12:02:00;13.90;;;3.60;;
70487;SDS011;57976;48.174;16.370;2022-08-19T12:04:05;13.00;;;3.60;;
70487;SDS011;57976;48.174;16.370;2022-08-19T12:06:11;14.30;;;3.80;;
70487;SDS011;57976;48.174;16.370;2022-08-19T12:08:18;15.20;;;4.10;;
70487;SDS011;57976;48.174;16.370;2022-08-19T12:10:23;14.60;;;3.50;;
70487;SDS011;57976;48.174;16.370;2022-08-19T12:12:28;13.70;;;3.80;;
70487;SDS011;57976;48.174;16.370;2022-08-19T12:14:33;12.30;;;3.60;;
70487;SDS011;57976;48.174;16.370;2022-08-19T12:16:38;13.00;;;4.00;;
70487;SDS011;57976;48.174;16.370;2022-08-19T12:18:53;16.00;;;4.50;;
70487;SDS011;57976;48.174;16.370;2022-08-19T12:20:59;12.30;;;4.30;;
70487;SDS011;57976;48.174;16.370;2022-08-19T12:23:05;15.60;;;4.50;;
70487;SDS011;57976;48.174;16.370;2022-08-19T12:25:11;13.10;;;4.70;;
70487;SDS011;57976;48.174;16.370;2022-08-19T12:27:17;13.50;;;4.80;;